ilmateenistus.ee keskkonnaagentuur.ee
EETN Tallinna lennuväli
FTEO31 EETN 231700
TAF EETN 231703Z 2318/2418 23015KT 6000 BKN005 BKN012 TEMPO 2318/2320
    2000 BR BKN003 BECMG 2320/2321 9999 NSW SCT006 BKN015 BECMG 2323/2401
    29014KT SCT025 TEMPO 2401/2412 28018G30KT=

METAR EETN 232020Z 23010KT CAVOK 03/02 Q1009 R08/290195 NOSIG=
Tallinna lennuväli
EEKA Kärdla lennuväli
METAR EEKA 231950Z NIL=
Kärdla lennuväli
EEKE Kuressaare lennuväli
METAR EEKE 231950Z AUTO 27008KT 230V330 9999NDV NCD 04/02 Q1013=
Kuressaare lennuväli
EEPU Pärnu lennuväli
METAR EEPU 231950Z NIL=
Pärnu lennuväli
EETU Tartu lennuväli
METAR EETU 232020Z AUTO 25012KT 9999 OVC011/// 05/04 Q1011=
Tartu lennuväli
EEEI Ämari lennuväli
METAR EEEI 231950Z 21011KT CAVOK 03/01 Q1010 R24/290095 NOSIG=
Ämari lennuväli

Uudised

Lisainfo 24h: 666 0932 aviamet@envir.ee